sensor_id;sensor_type;location;lat;lon;timestamp;temperature;humidity
68681;DHT22;55836;49.858;6.756;2023-10-08T00:00:48;12.10;99.90
68681;DHT22;55836;49.858;6.756;2023-10-08T00:03:21;12.00;99.90
68681;DHT22;55836;49.858;6.756;2023-10-08T00:05:47;12.00;99.90
68681;DHT22;55836;49.858;6.756;2023-10-08T00:08:14;12.00;99.90
68681;DHT22;55836;49.858;6.756;2023-10-08T00:10:42;11.90;99.90
68681;DHT22;55836;49.858;6.756;2023-10-08T00:13:09;11.80;99.90
68681;DHT22;55836;49.858;6.756;2023-10-08T00:15:38;11.80;99.90
68681;DHT22;55836;49.858;6.756;2023-10-08T00:18:07;11.80;99.90
68681;DHT22;55836;49.858;6.756;2023-10-08T00:20:37;11.80;99.90
68681;DHT22;55836;49.858;6.756;2023-10-08T00:23:22;11.90;99.90
68681;DHT22;55836;49.858;6.756;2023-10-08T00:25:54;11.80;99.90
68681;DHT22;55836;49.858;6.756;2023-10-08T00:28:20;11.80;99.90
68681;DHT22;55836;49.858;6.756;2023-10-08T00:30:46;11.80;99.90
68681;DHT22;55836;49.858;6.756;2023-10-08T00:33:13;11.80;99.90
68681;DHT22;55836;49.858;6.756;2023-10-08T00:35:40;11.70;99.90
68681;DHT22;55836;49.858;6.756;2023-10-08T00:38:07;11.70;99.90
68681;DHT22;55836;49.858;6.756;2023-10-08T00:40:43;11.60;99.90
68681;DHT22;55836;49.858;6.756;2023-10-08T00:43:34;11.60;99.90
68681;DHT22;55836;49.858;6.756;2023-10-08T00:46:04;11.70;99.90
68681;DHT22;55836;49.858;6.756;2023-10-08T00:48:31;11.80;99.90
68681;DHT22;55836;49.858;6.756;2023-10-08T00:51:04;12.00;99.90
68681;DHT22;55836;49.858;6.756;2023-10-08T00:54:00;12.00;99.90
68681;DHT22;55836;49.858;6.756;2023-10-08T00:56:34;11.80;99.90
68681;DHT22;55836;49.858;6.756;2023-10-08T00:59:18;11.80;99.90
68681;DHT22;55836;49.858;6.756;2023-10-08T01:01:48;11.70;99.90
68681;DHT22;55836;49.858;6.756;2023-10-08T01:04:18;11.80;99.90
68681;DHT22;55836;49.858;6.756;2023-10-08T01:06:50;11.70;99.90
68681;DHT22;55836;49.858;6.756;2023-10-08T01:09:19;11.70;99.90
68681;DHT22;55836;49.858;6.756;2023-10-08T01:12:07;11.80;99.90
68681;DHT22;55836;49.858;6.756;2023-10-08T01:14:33;11.80;99.90
68681;DHT22;55836;49.858;6.756;2023-10-08T01:16:58;11.70;99.90
68681;DHT22;55836;49.858;6.756;2023-10-08T01:19:25;11.70;99.90
68681;DHT22;55836;49.858;6.756;2023-10-08T01:21:52;11.70;99.90
68681;DHT22;55836;49.858;6.756;2023-10-08T01:24:18;11.80;99.90
68681;DHT22;55836;49.858;6.756;2023-10-08T01:26:49;11.70;99.90
68681;DHT22;55836;49.858;6.756;2023-10-08T01:29:14;11.80;99.90
68681;DHT22;55836;49.858;6.756;2023-10-08T01:31:47;11.30;99.90
68681;DHT22;55836;49.858;6.756;2023-10-08T01:34:14;11.90;99.90
68681;DHT22;55836;49.858;6.756;2023-10-08T01:36:42;11.80;99.90
68681;DHT22;55836;49.858;6.756;2023-10-08T01:39:14;12.50;99.90
68681;DHT22;55836;49.858;6.756;2023-10-08T01:41:45;12.10;99.90
68681;DHT22;55836;49.858;6.756;2023-10-08T01:44:12;12.00;99.90
68681;DHT22;55836;49.858;6.756;2023-10-08T01:46:38;12.00;99.90
68681;DHT22;55836;49.858;6.756;2023-10-08T01:49:06;12.00;99.90
68681;DHT22;55836;49.858;6.756;2023-10-08T01:51:40;12.30;99.90
68681;DHT22;55836;49.858;6.756;2023-10-08T01:54:12;12.30;99.90
68681;DHT22;55836;49.858;6.756;2023-10-08T01:56:40;12.30;99.90
68681;DHT22;55836;49.858;6.756;2023-10-08T01:59:13;12.10;99.90
68681;DHT22;55836;49.858;6.756;2023-10-08T02:01:42;11.90;99.90
68681;DHT22;55836;49.858;6.756;2023-10-08T02:04:09;11.80;99.90
68681;DHT22;55836;49.858;6.756;2023-10-08T02:06:35;11.80;99.90
68681;DHT22;55836;49.858;6.756;2023-10-08T02:09:01;11.70;99.90
68681;DHT22;55836;49.858;6.756;2023-10-08T02:11:44;11.70;99.90
68681;DHT22;55836;49.858;6.756;2023-10-08T02:14:10;11.60;99.90
68681;DHT22;55836;49.858;6.756;2023-10-08T02:16:36;11.50;99.90
68681;DHT22;55836;49.858;6.756;2023-10-08T02:19:03;11.50;99.90
68681;DHT22;55836;49.858;6.756;2023-10-08T02:21:29;11.40;99.90
68681;DHT22;55836;49.858;6.756;2023-10-08T02:23:54;11.50;99.90
68681;DHT22;55836;49.858;6.756;2023-10-08T02:26:20;11.40;99.90
68681;DHT22;55836;49.858;6.756;2023-10-08T02:28:45;11.30;99.90
68681;DHT22;55836;49.858;6.756;2023-10-08T02:31:11;11.20;99.90
68681;DHT22;55836;49.858;6.756;2023-10-08T02:33:37;11.20;99.90
68681;DHT22;55836;49.858;6.756;2023-10-08T02:36:03;11.20;99.90
68681;DHT22;55836;49.858;6.756;2023-10-08T02:38:30;11.20;99.90
68681;DHT22;55836;49.858;6.756;2023-10-08T02:41:03;11.10;99.90
68681;DHT22;55836;49.858;6.756;2023-10-08T02:43:32;11.10;99.90
68681;DHT22;55836;49.858;6.756;2023-10-08T02:46:00;11.10;99.90
68681;DHT22;55836;49.858;6.756;2023-10-08T02:48:25;11.00;99.90
68681;DHT22;55836;49.858;6.756;2023-10-08T02:50:54;11.00;99.90
68681;DHT22;55836;49.858;6.756;2023-10-08T02:53:32;11.00;99.90
68681;DHT22;55836;49.858;6.756;2023-10-08T02:55:58;11.00;99.90
68681;DHT22;55836;49.858;6.756;2023-10-08T02:58:23;11.00;99.90
68681;DHT22;55836;49.858;6.756;2023-10-08T03:00:50;10.90;99.90
68681;DHT22;55836;49.858;6.756;2023-10-08T03:03:18;10.90;99.90
68681;DHT22;55836;49.858;6.756;2023-10-08T03:05:48;10.90;99.90
68681;DHT22;55836;49.858;6.756;2023-10-08T03:08:15;10.80;99.90
68681;DHT22;55836;49.858;6.756;2023-10-08T03:10:51;10.70;99.90
68681;DHT22;55836;49.858;6.756;2023-10-08T03:13:28;10.70;99.90
68681;DHT22;55836;49.858;6.756;2023-10-08T03:15:54;10.70;99.90
68681;DHT22;55836;49.858;6.756;2023-10-08T03:18:27;10.70;99.90
68681;DHT22;55836;49.858;6.756;2023-10-08T03:21:02;10.70;99.90
68681;DHT22;55836;49.858;6.756;2023-10-08T03:23:31;10.70;99.90
68681;DHT22;55836;49.858;6.756;2023-10-08T03:26:02;10.70;99.90
68681;DHT22;55836;49.858;6.756;2023-10-08T03:29:01;10.60;99.90
68681;DHT22;55836;49.858;6.756;2023-10-08T03:31:31;10.60;99.90
68681;DHT22;55836;49.858;6.756;2023-10-08T03:34:13;10.60;99.90
68681;DHT22;55836;49.858;6.756;2023-10-08T03:36:39;10.60;99.90
68681;DHT22;55836;49.858;6.756;2023-10-08T03:39:16;10.70;99.90
68681;DHT22;55836;49.858;6.756;2023-10-08T03:41:44;10.70;99.90
68681;DHT22;55836;49.858;6.756;2023-10-08T03:44:33;10.60;99.90
68681;DHT22;55836;49.858;6.756;2023-10-08T03:47:03;10.30;99.90
68681;DHT22;55836;49.858;6.756;2023-10-08T03:49:36;10.50;99.90
68681;DHT22;55836;49.858;6.756;2023-10-08T03:52:09;11.10;99.90
68681;DHT22;55836;49.858;6.756;2023-10-08T03:54:35;10.50;99.90
68681;DHT22;55836;49.858;6.756;2023-10-08T03:57:02;10.60;99.90
68681;DHT22;55836;49.858;6.756;2023-10-08T03:59:38;11.40;99.90
68681;DHT22;55836;49.858;6.756;2023-10-08T04:02:06;10.70;99.90
68681;DHT22;55836;49.858;6.756;2023-10-08T04:05:01;10.70;99.90
68681;DHT22;55836;49.858;6.756;2023-10-08T04:07:43;10.90;99.90
68681;DHT22;55836;49.858;6.756;2023-10-08T04:10:24;11.40;99.90
68681;DHT22;55836;49.858;6.756;2023-10-08T04:13:24;11.00;99.90
68681;DHT22;55836;49.858;6.756;2023-10-08T04:15:50;11.50;99.90
68681;DHT22;55836;49.858;6.756;2023-10-08T04:18:16;10.80;99.90
68681;DHT22;55836;49.858;6.756;2023-10-08T04:20:41;10.80;99.90
68681;DHT22;55836;49.858;6.756;2023-10-08T04:23:26;10.60;99.90
68681;DHT22;55836;49.858;6.756;2023-10-08T04:25:51;10.60;99.90
68681;DHT22;55836;49.858;6.756;2023-10-08T04:28:20;10.50;99.90
68681;DHT22;55836;49.858;6.756;2023-10-08T04:30:47;11.00;99.90
68681;DHT22;55836;49.858;6.756;2023-10-08T04:33:13;10.70;99.90
68681;DHT22;55836;49.858;6.756;2023-10-08T04:35:41;10.70;99.90
68681;DHT22;55836;49.858;6.756;2023-10-08T04:38:28;10.60;99.90
68681;DHT22;55836;49.858;6.756;2023-10-08T04:40:54;10.70;99.90
68681;DHT22;55836;49.858;6.756;2023-10-08T04:43:22;10.60;99.90
68681;DHT22;55836;49.858;6.756;2023-10-08T04:46:00;10.40;99.90
68681;DHT22;55836;49.858;6.756;2023-10-08T04:48:31;10.50;99.90
68681;DHT22;55836;49.858;6.756;2023-10-08T04:51:02;10.20;99.90
68681;DHT22;55836;49.858;6.756;2023-10-08T04:53:33;10.50;99.90
68681;DHT22;55836;49.858;6.756;2023-10-08T04:56:04;10.30;99.90
68681;DHT22;55836;49.858;6.756;2023-10-08T04:58:45;10.30;99.90
68681;DHT22;55836;49.858;6.756;2023-10-08T05:01:18;10.40;99.90
68681;DHT22;55836;49.858;6.756;2023-10-08T05:03:56;10.20;99.90
68681;DHT22;55836;49.858;6.756;2023-10-08T05:06:26;10.10;99.90
68681;DHT22;55836;49.858;6.756;2023-10-08T05:09:05;10.50;99.90
68681;DHT22;55836;49.858;6.756;2023-10-08T05:11:50;10.10;99.90
68681;DHT22;55836;49.858;6.756;2023-10-08T05:17:03;11.40;99.90
68681;DHT22;55836;49.858;6.756;2023-10-08T05:19:35;10.40;99.90
68681;DHT22;55836;49.858;6.756;2023-10-08T05:22:14;10.80;99.90
68681;DHT22;55836;49.858;6.756;2023-10-08T05:25:03;10.80;99.90
68681;DHT22;55836;49.858;6.756;2023-10-08T05:27:43;10.50;99.90
68681;DHT22;55836;49.858;6.756;2023-10-08T05:30:16;11.00;99.90
68681;DHT22;55836;49.858;6.756;2023-10-08T05:32:53;10.30;99.90
68681;DHT22;55836;49.858;6.756;2023-10-08T05:35:41;10.40;99.90
68681;DHT22;55836;49.858;6.756;2023-10-08T05:38:15;10.40;99.90
68681;DHT22;55836;49.858;6.756;2023-10-08T05:40:44;10.50;99.90
68681;DHT22;55836;49.858;6.756;2023-10-08T05:46:10;10.50;99.90
68681;DHT22;55836;49.858;6.756;2023-10-08T05:48:56;10.00;99.90
68681;DHT22;55836;49.858;6.756;2023-10-08T05:51:35;9.90;99.90
68681;DHT22;55836;49.858;6.756;2023-10-08T05:54:15;10.00;99.90
68681;DHT22;55836;49.858;6.756;2023-10-08T05:57:08;11.10;99.90
68681;DHT22;55836;49.858;6.756;2023-10-08T05:59:39;9.90;99.90
68681;DHT22;55836;49.858;6.756;2023-10-08T06:02:31;10.10;99.90
68681;DHT22;55836;49.858;6.756;2023-10-08T06:05:04;10.30;99.90
68681;DHT22;55836;49.858;6.756;2023-10-08T06:07:39;9.90;99.90
68681;DHT22;55836;49.858;6.756;2023-10-08T06:10:28;11.30;99.90
68681;DHT22;55836;49.858;6.756;2023-10-08T06:13:06;10.00;99.90
68681;DHT22;55836;49.858;6.756;2023-10-08T06:15:53;9.90;99.90
68681;DHT22;55836;49.858;6.756;2023-10-08T06:18:23;11.10;99.90
68681;DHT22;55836;49.858;6.756;2023-10-08T06:21:02;9.90;99.90
68681;DHT22;55836;49.858;6.756;2023-10-08T06:23:35;10.30;99.90
68681;DHT22;55836;49.858;6.756;2023-10-08T06:26:02;9.90;99.90
68681;DHT22;55836;49.858;6.756;2023-10-08T06:28:41;10.10;99.90
68681;DHT22;55836;49.858;6.756;2023-10-08T06:31:08;10.10;99.90
68681;DHT22;55836;49.858;6.756;2023-10-08T06:33:44;10.40;99.90
68681;DHT22;55836;49.858;6.756;2023-10-08T06:36:10;10.20;99.90
68681;DHT22;55836;49.858;6.756;2023-10-08T06:38:36;10.50;99.90
68681;DHT22;55836;49.858;6.756;2023-10-08T06:41:05;10.70;99.90
68681;DHT22;55836;49.858;6.756;2023-10-08T06:43:41;10.30;99.90
68681;DHT22;55836;49.858;6.756;2023-10-08T06:46:16;10.50;99.90
68681;DHT22;55836;49.858;6.756;2023-10-08T06:48:44;10.80;99.90
68681;DHT22;55836;49.858;6.756;2023-10-08T06:51:12;10.40;99.90
68681;DHT22;55836;49.858;6.756;2023-10-08T06:53:46;10.60;99.90
68681;DHT22;55836;49.858;6.756;2023-10-08T06:56:14;10.70;99.90
68681;DHT22;55836;49.858;6.756;2023-10-08T06:58:41;11.10;99.90
68681;DHT22;55836;49.858;6.756;2023-10-08T07:01:14;11.10;99.90
68681;DHT22;55836;49.858;6.756;2023-10-08T07:03:49;10.80;99.90
68681;DHT22;55836;49.858;6.756;2023-10-08T07:06:15;11.00;99.90
68681;DHT22;55836;49.858;6.756;2023-10-08T07:09:03;11.00;99.90
68681;DHT22;55836;49.858;6.756;2023-10-08T07:11:33;10.90;99.90
68681;DHT22;55836;49.858;6.756;2023-10-08T07:14:05;11.40;99.90
68681;DHT22;55836;49.858;6.756;2023-10-08T07:16:31;11.20;99.90
68681;DHT22;55836;49.858;6.756;2023-10-08T07:18:57;11.30;99.90
68681;DHT22;55836;49.858;6.756;2023-10-08T07:21:43;11.80;99.90
68681;DHT22;55836;49.858;6.756;2023-10-08T07:24:15;11.50;99.90
68681;DHT22;55836;49.858;6.756;2023-10-08T07:26:45;11.70;99.90
68681;DHT22;55836;49.858;6.756;2023-10-08T07:29:16;11.90;99.90
68681;DHT22;55836;49.858;6.756;2023-10-08T07:31:45;11.80;99.90
68681;DHT22;55836;49.858;6.756;2023-10-08T07:34:15;12.00;99.90
68681;DHT22;55836;49.858;6.756;2023-10-08T07:36:48;12.10;99.90
68681;DHT22;55836;49.858;6.756;2023-10-08T07:39:18;12.20;99.90
68681;DHT22;55836;49.858;6.756;2023-10-08T07:42:03;12.30;99.90
68681;DHT22;55836;49.858;6.756;2023-10-08T07:44:33;12.80;99.90
68681;DHT22;55836;49.858;6.756;2023-10-08T07:47:02;12.70;99.90
68681;DHT22;55836;49.858;6.756;2023-10-08T07:49:31;12.80;99.90
68681;DHT22;55836;49.858;6.756;2023-10-08T07:52:00;13.10;99.90
68681;DHT22;55836;49.858;6.756;2023-10-08T07:54:26;13.10;99.90
68681;DHT22;55836;49.858;6.756;2023-10-08T07:57:03;13.50;99.90
68681;DHT22;55836;49.858;6.756;2023-10-08T07:59:41;13.30;99.90
68681;DHT22;55836;49.858;6.756;2023-10-08T08:02:09;13.60;99.90
68681;DHT22;55836;49.858;6.756;2023-10-08T08:04:41;13.60;99.90
68681;DHT22;55836;49.858;6.756;2023-10-08T08:07:09;13.60;99.90
68681;DHT22;55836;49.858;6.756;2023-10-08T08:09:46;13.80;99.90
68681;DHT22;55836;49.858;6.756;2023-10-08T08:12:18;14.20;99.90
68681;DHT22;55836;49.858;6.756;2023-10-08T08:14:45;14.00;99.90
68681;DHT22;55836;49.858;6.756;2023-10-08T08:17:11;13.70;99.90
68681;DHT22;55836;49.858;6.756;2023-10-08T08:19:43;14.40;99.90
68681;DHT22;55836;49.858;6.756;2023-10-08T08:22:10;14.30;99.90
68681;DHT22;55836;49.858;6.756;2023-10-08T08:24:48;14.30;99.90
68681;DHT22;55836;49.858;6.756;2023-10-08T08:27:19;14.50;99.90
68681;DHT22;55836;49.858;6.756;2023-10-08T08:29:52;14.80;99.90
